Sophia — D5AM2 — position and weather

sailwx.info

Track history (hours):
 
Tides and Currents Weather Stations Pressure Air Temp Water Temp Dewpoint Dewpoint Depression Visibility Wind Speed Wind Dir Waves Ship Positions

Sophia

Last reported at 2018-Jun-09 20:19 UTC. Time now 2018-Jun-21 16:25 UTC.
Position N 01°53' E 104°44'.
Warning: this ship's position is 11 days out of date.

Length 138 m; draft 6 m.

Type: Cargo ship. MMSI: 636092330.

Date/timePositionNaut miles runAvg speedWind from/ knotsBaromVisibWave heightAir tempDewpointWater temp
2018-Jun-09 20:19N 01°53' E 104°44'713.4
2018-Jun-09 19:46N 01°46' E 104°41'714.0
2018-Jun-09 19:16N 01°39' E 104°39'412.9
2018-Jun-09 18:59N 01°36' E 104°38'814.2
2018-Jun-09 18:24N 01°29' E 104°33'613.9
2018-Jun-09 17:57N 01°25' E 104°28'714.3
2018-Jun-09 17:29N 01°20' E 104°23'713.8
2018-Jun-09 16:59N 01°17' E 104°17'714.3
2018-Jun-09 16:29N 01°16' E 104°10'713.3
2018-Jun-09 16:00N 01°15' E 104°03'713.8
2018-Jun-09 15:30N 01°14' E 103°57'9 9.1
2018-Jun-09 14:30N 01°13' E 103°48'4 7.7
2018-Jun-09 14:00N 01°16' E 103°45'3 4.7
2018-Jun-09 13:23N 01°18' E 103°43'0 0.0
2018-Jun-09 12:55N 01°18' E 103°43'0 0.0
2018-Jun-09 12:23N 01°18' E 103°43'0 0.0
2018-Jun-09 11:50N 01°18' E 103°43'0 0.0
2018-Jun-09 11:28N 01°18' E 103°43'0 0.0
2018-Jun-09 10:58N 01°18' E 103°43'0 0.0
2018-Jun-09 10:28N 01°18' E 103°43'0 0.0
2018-Jun-09 09:58N 01°18' E 103°43'0 0.0
2018-Jun-09 09:28N 01°18' E 103°43'0 0.0
2018-Jun-09 08:46N 01°18' E 103°43'0 0.0
2018-Jun-09 08:25N 01°18' E 103°43'0 0.0
2018-Jun-09 07:56N 01°18' E 103°43'0 0.0
2018-Jun-09 07:28N 01°18' E 103°43'0 0.0
2018-Jun-09 07:00N 01°18' E 103°43'0 0.0
2018-Jun-09 06:30N 01°18' E 103°43'0 0.7
2018-Jun-09 06:00N 01°18' E 103°44'3 6.6
2018-Jun-09 05:30N 01°16' E 103°46'4 8.2
2018-Jun-09 05:00N 01°14' E 103°42'3 7.1
2018-Jun-09 04:30N 01°10' E 103°42'1 1.9
2018-Jun-09 03:57N 01°10' E 103°43'0 0.0
2018-Jun-09 03:29N 01°10' E 103°43'0 0.1
2018-Jun-09 02:59N 01°10' E 103°43'0 0.0
2018-Jun-09 02:29N 01°10' E 103°43'0 0.0
2018-Jun-09 01:58N 01°10' E 103°43'0 0.0
2018-Jun-09 01:25N 01°10' E 103°43'0 0.0
2018-Jun-09 00:58N 01°10' E 103°43'0 0.0
2018-Jun-09 00:28N 01°10' E 103°43'0 0.0
2018-Jun-08 23:58N 01°10' E 103°43'0 0.0
2018-Jun-08 23:21N 01°10' E 103°43'0 0.0
2018-Jun-08 22:58N 01°10' E 103°43'0 0.0
2018-Jun-08 22:28N 01°10' E 103°43'0 0.0
2018-Jun-08 21:59N 01°10' E 103°43'0 0.1
2018-Jun-08 21:27N 01°10' E 103°43'0 0.0
2018-Jun-08 20:55N 01°10' E 103°43'0 0.0
2018-Jun-08 20:31N 01°10' E 103°43'0 0.0
2018-Jun-08 19:59N 01°10' E 103°43'0 0.0
2018-Jun-08 19:29N 01°10' E 103°43'0 0.0
2018-Jun-08 18:59N 01°10' E 103°43'0 0.0
2018-Jun-08 18:29N 01°10' E 103°43'0 0.1
2018-Jun-08 17:59N 01°10' E 103°43'0 0.0
2018-Jun-08 17:30N 01°10' E 103°43'0 0.1
2018-Jun-08 16:59N 01°10' E 103°43'0 0.0
2018-Jun-08 16:29N 01°10' E 103°43'0 0.0
2018-Jun-08 15:59N 01°10' E 103°43'0 0.1
2018-Jun-08 15:29N 01°10' E 103°43'0 0.0
2018-Jun-08 14:59N 01°10' E 103°43'0 0.0
2018-Jun-08 14:21N 01°10' E 103°43'0 0.0
2018-Jun-08 13:58N 01°10' E 103°43'0 0.0
2018-Jun-08 13:30N 01°10' E 103°43'0 0.0
2018-Jun-08 12:51N 01°10' E 103°43'0 0.0
2018-Jun-08 12:24N 01°10' E 103°43'0 0.1
2018-Jun-08 11:57N 01°10' E 103°43'0 0.3
2018-Jun-08 11:30N 01°10' E 103°43'2 4.1
2018-Jun-08 11:00N 01°11' E 103°41'510.7
2018-Jun-08 10:30N 01°12' E 103°36'4 7.0
2018-Jun-08 09:59N 01°11' E 103°32'5 9.4
2018-Jun-08 09:31N 01°10' E 103°28'612.2
2018-Jun-08 08:59N 01°13' E 103°23'712.7
2018-Jun-08 08:27N 01°18' E 103°18'3313.3
2018-Jun-08 05:56N 01°36' E 102°50'  
Track history (hours):
 
Tides and Currents Weather Stations Pressure Air Temp Water Temp Dewpoint Dewpoint Depression Visibility Wind Speed Wind Dir Waves Ship Positions

Sophia

Last reported at 2018-Jun-09 20:19 UTC. Time now 2018-Jun-21 16:25 UTC.
Position N 01°53' E 104°44'.
Warning: this ship's position is 11 days out of date.

Length 138 m; draft 6 m.

Type: Cargo ship. MMSI: 636092330.

Date/timePositionNaut miles runAvg speedWind from/ knotsBaromVisibWave heightAir tempDewpointWater temp
2018-Jun-09 20:19N 01°53' E 104°44'713.4
2018-Jun-09 19:46N 01°46' E 104°41'714.0
2018-Jun-09 19:16N 01°39' E 104°39'412.9
2018-Jun-09 18:59N 01°36' E 104°38'814.2
2018-Jun-09 18:24N 01°29' E 104°33'613.9
2018-Jun-09 17:57N 01°25' E 104°28'714.3
2018-Jun-09 17:29N 01°20' E 104°23'713.8
2018-Jun-09 16:59N 01°17' E 104°17'714.3
2018-Jun-09 16:29N 01°16' E 104°10'713.3
2018-Jun-09 16:00N 01°15' E 104°03'713.8
2018-Jun-09 15:30N 01°14' E 103°57'9 9.1
2018-Jun-09 14:30N 01°13' E 103°48'4 7.7
2018-Jun-09 14:00N 01°16' E 103°45'3 4.7
2018-Jun-09 13:23N 01°18' E 103°43'0 0.0
2018-Jun-09 12:55N 01°18' E 103°43'0 0.0
2018-Jun-09 12:23N 01°18' E 103°43'0 0.0
2018-Jun-09 11:50N 01°18' E 103°43'0 0.0
2018-Jun-09 11:28N 01°18' E 103°43'0 0.0
2018-Jun-09 10:58N 01°18' E 103°43'0 0.0
2018-Jun-09 10:28N 01°18' E 103°43'0 0.0
2018-Jun-09 09:58N 01°18' E 103°43'0 0.0
2018-Jun-09 09:28N 01°18' E 103°43'0 0.0
2018-Jun-09 08:46N 01°18' E 103°43'0 0.0
2018-Jun-09 08:25N 01°18' E 103°43'0 0.0
2018-Jun-09 07:56N 01°18' E 103°43'0 0.0
2018-Jun-09 07:28N 01°18' E 103°43'0 0.0
2018-Jun-09 07:00N 01°18' E 103°43'0 0.0
2018-Jun-09 06:30N 01°18' E 103°43'0 0.7
2018-Jun-09 06:00N 01°18' E 103°44'3 6.6
2018-Jun-09 05:30N 01°16' E 103°46'4 8.2
2018-Jun-09 05:00N 01°14' E 103°42'3 7.1
2018-Jun-09 04:30N 01°10' E 103°42'1 1.9
2018-Jun-09 03:57N 01°10' E 103°43'0 0.0
2018-Jun-09 03:29N 01°10' E 103°43'0 0.1
2018-Jun-09 02:59N 01°10' E 103°43'0 0.0
2018-Jun-09 02:29N 01°10' E 103°43'0 0.0
2018-Jun-09 01:58N 01°10' E 103°43'0 0.0
2018-Jun-09 01:25N 01°10' E 103°43'0 0.0
2018-Jun-09 00:58N 01°10' E 103°43'0 0.0
2018-Jun-09 00:28N 01°10' E 103°43'0 0.0
2018-Jun-08 23:58N 01°10' E 103°43'0 0.0
2018-Jun-08 23:21N 01°10' E 103°43'0 0.0
2018-Jun-08 22:58N 01°10' E 103°43'0 0.0
2018-Jun-08 22:28N 01°10' E 103°43'0 0.0
2018-Jun-08 21:59N 01°10' E 103°43'0 0.1
2018-Jun-08 21:27N 01°10' E 103°43'0 0.0
2018-Jun-08 20:55N 01°10' E 103°43'0 0.0
2018-Jun-08 20:31N 01°10' E 103°43'0 0.0
2018-Jun-08 19:59N 01°10' E 103°43'0 0.0
2018-Jun-08 19:29N 01°10' E 103°43'0 0.0
2018-Jun-08 18:59N 01°10' E 103°43'0 0.0
2018-Jun-08 18:29N 01°10' E 103°43'0 0.1
2018-Jun-08 17:59N 01°10' E 103°43'0 0.0
2018-Jun-08 17:30N 01°10' E 103°43'0 0.1
2018-Jun-08 16:59N 01°10' E 103°43'0 0.0
2018-Jun-08 16:29N 01°10' E 103°43'0 0.0
2018-Jun-08 15:59N 01°10' E 103°43'0 0.1
2018-Jun-08 15:29N 01°10' E 103°43'0 0.0
2018-Jun-08 14:59N 01°10' E 103°43'0 0.0
2018-Jun-08 14:21N 01°10' E 103°43'0 0.0
2018-Jun-08 13:58N 01°10' E 103°43'0 0.0
2018-Jun-08 13:30N 01°10' E 103°43'0 0.0
2018-Jun-08 12:51N 01°10' E 103°43'0 0.0
2018-Jun-08 12:24N 01°10' E 103°43'0 0.1
2018-Jun-08 11:57N 01°10' E 103°43'0 0.3
2018-Jun-08 11:30N 01°10' E 103°43'2 4.1
2018-Jun-08 11:00N 01°11' E 103°41'510.7
2018-Jun-08 10:30N 01°12' E 103°36'4 7.0
2018-Jun-08 09:59N 01°11' E 103°32'5 9.4
2018-Jun-08 09:31N 01°10' E 103°28'612.2
2018-Jun-08 08:59N 01°13' E 103°23'712.7
2018-Jun-08 08:27N 01°18' E 103°18'3313.3
2018-Jun-08 05:56N 01°36' E 102°50'  

Dump ship's entire track history